sensor_id;sensor_type;location;lat;lon;timestamp;noise_LAeq;noise_LA_min;noise_LA_max;noise_LA01;noise_LA95
37163;Laerm;23057;48.554;14.454;2023-12-20T00:00:42;37.55;33.90;40.33;;
37163;Laerm;23057;48.554;14.454;2023-12-20T00:03:13;37.56;33.44;40.43;;
37163;Laerm;23057;48.554;14.454;2023-12-20T00:05:45;37.59;32.35;40.43;;
37163;Laerm;23057;48.554;14.454;2023-12-20T00:08:17;37.57;33.90;40.03;;
37163;Laerm;23057;48.554;14.454;2023-12-20T00:10:47;37.56;32.93;40.43;;
37163;Laerm;23057;48.554;14.454;2023-12-20T00:13:18;37.57;33.90;40.03;;
37163;Laerm;23057;48.554;14.454;2023-12-20T00:15:49;37.52;33.90;40.13;;
37163;Laerm;23057;48.554;14.454;2023-12-20T00:18:20;37.52;32.93;40.43;;
37163;Laerm;23057;48.554;14.454;2023-12-20T00:20:50;37.59;33.90;40.03;;
37163;Laerm;23057;48.554;14.454;2023-12-20T00:23:21;37.54;33.90;40.13;;
37163;Laerm;23057;48.554;14.454;2023-12-20T00:25:53;37.55;33.55;40.23;;
37163;Laerm;23057;48.554;14.454;2023-12-20T00:28:25;37.53;33.97;40.13;;
37163;Laerm;23057;48.554;14.454;2023-12-20T00:30:56;37.55;33.44;40.03;;
37163;Laerm;23057;48.554;14.454;2023-12-20T00:33:27;37.52;32.35;39.92;;
37163;Laerm;23057;48.554;14.454;2023-12-20T00:35:58;37.56;32.93;40.13;;
37163;Laerm;23057;48.554;14.454;2023-12-20T00:38:28;37.53;33.44;40.03;;
37163;Laerm;23057;48.554;14.454;2023-12-20T00:40:59;37.52;33.44;40.13;;
37163;Laerm;23057;48.554;14.454;2023-12-20T00:43:30;37.55;33.90;40.13;;
37163;Laerm;23057;48.554;14.454;2023-12-20T00:46:01;37.54;33.90;40.13;;
37163;Laerm;23057;48.554;14.454;2023-12-20T00:48:32;37.53;33.44;40.13;;
37163;Laerm;23057;48.554;14.454;2023-12-20T00:51:03;37.53;32.35;40.33;;
37163;Laerm;23057;48.554;14.454;2023-12-20T00:53:34;37.55;33.44;40.08;;
37163;Laerm;23057;48.554;14.454;2023-12-20T00:56:05;37.53;33.44;40.13;;
37163;Laerm;23057;48.554;14.454;2023-12-20T00:58:36;37.53;33.44;39.92;;
37163;Laerm;23057;48.554;14.454;2023-12-20T01:01:06;37.52;33.44;40.89;;
37163;Laerm;23057;48.554;14.454;2023-12-20T01:03:37;37.52;33.44;40.43;;
37163;Laerm;23057;48.554;14.454;2023-12-20T01:06:08;37.53;33.44;40.43;;
37163;Laerm;23057;48.554;14.454;2023-12-20T01:08:39;37.51;33.44;40.43;;
37163;Laerm;23057;48.554;14.454;2023-12-20T01:11:10;37.53;33.44;40.23;;
37163;Laerm;23057;48.554;14.454;2023-12-20T01:13:41;37.54;32.35;40.13;;
37163;Laerm;23057;48.554;14.454;2023-12-20T01:16:12;37.53;33.44;40.43;;
37163;Laerm;23057;48.554;14.454;2023-12-20T01:18:43;37.52;33.44;40.03;;
37163;Laerm;23057;48.554;14.454;2023-12-20T01:21:14;37.52;33.55;39.92;;
37163;Laerm;23057;48.554;14.454;2023-12-20T01:23:44;37.52;33.90;40.13;;
37163;Laerm;23057;48.554;14.454;2023-12-20T01:26:15;37.55;33.90;40.43;;
37163;Laerm;23057;48.554;14.454;2023-12-20T01:28:46;37.53;33.44;40.13;;
37163;Laerm;23057;48.554;14.454;2023-12-20T01:31:17;37.53;33.44;40.13;;
37163;Laerm;23057;48.554;14.454;2023-12-20T01:33:48;37.53;33.44;40.13;;
37163;Laerm;23057;48.554;14.454;2023-12-20T01:36:18;37.52;32.35;40.03;;
37163;Laerm;23057;48.554;14.454;2023-12-20T01:38:50;37.53;33.44;40.08;;
37163;Laerm;23057;48.554;14.454;2023-12-20T01:41:21;37.52;33.44;40.23;;
37163;Laerm;23057;48.554;14.454;2023-12-20T01:43:51;37.53;33.90;40.03;;
37163;Laerm;23057;48.554;14.454;2023-12-20T01:46:24;37.54;32.93;40.43;;
37163;Laerm;23057;48.554;14.454;2023-12-20T01:48:55;37.56;33.90;40.03;;
37163;Laerm;23057;48.554;14.454;2023-12-20T01:51:27;37.53;33.44;40.33;;
37163;Laerm;23057;48.554;14.454;2023-12-20T01:54:00;37.54;33.90;40.23;;
37163;Laerm;23057;48.554;14.454;2023-12-20T01:56:32;37.57;32.93;40.33;;
37163;Laerm;23057;48.554;14.454;2023-12-20T01:59:04;37.58;34.31;40.23;;
37163;Laerm;23057;48.554;14.454;2023-12-20T02:01:35;37.60;33.09;40.03;;
37163;Laerm;23057;48.554;14.454;2023-12-20T02:04:07;37.59;33.90;40.23;;
37163;Laerm;23057;48.554;14.454;2023-12-20T02:06:40;37.60;33.90;42.65;;
37163;Laerm;23057;48.554;14.454;2023-12-20T02:09:11;37.59;34.31;40.13;;
37163;Laerm;23057;48.554;14.454;2023-12-20T02:11:43;37.62;32.93;40.23;;
37163;Laerm;23057;48.554;14.454;2023-12-20T02:14:14;37.70;34.31;40.53;;
37163;Laerm;23057;48.554;14.454;2023-12-20T02:16:45;37.76;34.31;40.23;;
37163;Laerm;23057;48.554;14.454;2023-12-20T02:19:20;37.72;33.90;40.43;;
37163;Laerm;23057;48.554;14.454;2023-12-20T02:22:14;37.76;33.90;40.33;;
37163;Laerm;23057;48.554;14.454;2023-12-20T02:24:44;37.81;33.44;40.62;;
37163;Laerm;23057;48.554;14.454;2023-12-20T02:27:19;37.75;33.44;40.71;;
37163;Laerm;23057;48.554;14.454;2023-12-20T02:29:51;37.99;33.44;41.06;;
37163;Laerm;23057;48.554;14.454;2023-12-20T02:32:24;38.23;33.90;40.62;;
37163;Laerm;23057;48.554;14.454;2023-12-20T02:34:58;38.20;34.69;40.89;;
37163;Laerm;23057;48.554;14.454;2023-12-20T02:37:29;37.90;34.31;40.54;;
37163;Laerm;23057;48.554;14.454;2023-12-20T02:40:00;37.91;33.44;40.62;;
37163;Laerm;23057;48.554;14.454;2023-12-20T02:42:30;37.89;33.90;40.33;;
37163;Laerm;23057;48.554;14.454;2023-12-20T02:45:02;37.81;34.31;40.43;;
37163;Laerm;23057;48.554;14.454;2023-12-20T02:47:32;37.79;34.31;40.62;;
37163;Laerm;23057;48.554;14.454;2023-12-20T02:50:04;37.77;33.90;40.43;;
37163;Laerm;23057;48.554;14.454;2023-12-20T02:52:34;37.74;33.90;40.23;;
37163;Laerm;23057;48.554;14.454;2023-12-20T02:55:06;37.78;33.44;40.45;;
37163;Laerm;23057;48.554;14.454;2023-12-20T02:57:37;37.75;33.44;40.33;;
37163;Laerm;23057;48.554;14.454;2023-12-20T03:00:12;37.73;34.31;40.33;;
37163;Laerm;23057;48.554;14.454;2023-12-20T03:02:43;37.75;33.44;40.23;;
37163;Laerm;23057;48.554;14.454;2023-12-20T03:05:14;37.77;34.31;40.53;;
37163;Laerm;23057;48.554;14.454;2023-12-20T03:07:45;37.76;33.44;40.13;;
37163;Laerm;23057;48.554;14.454;2023-12-20T03:10:16;37.80;34.31;40.23;;
37163;Laerm;23057;48.554;14.454;2023-12-20T03:12:47;37.78;33.90;40.43;;
37163;Laerm;23057;48.554;14.454;2023-12-20T03:15:18;37.79;33.44;40.13;;
37163;Laerm;23057;48.554;14.454;2023-12-20T03:17:49;37.82;34.31;40.23;;
37163;Laerm;23057;48.554;14.454;2023-12-20T03:20:19;37.80;34.31;40.62;;
37163;Laerm;23057;48.554;14.454;2023-12-20T03:22:50;37.84;33.90;40.53;;
37163;Laerm;23057;48.554;14.454;2023-12-20T03:25:21;37.82;34.31;40.33;;
37163;Laerm;23057;48.554;14.454;2023-12-20T03:27:53;37.83;34.31;40.23;;
37163;Laerm;23057;48.554;14.454;2023-12-20T03:30:24;37.82;34.34;40.33;;
37163;Laerm;23057;48.554;14.454;2023-12-20T03:32:54;37.83;33.44;40.43;;
37163;Laerm;23057;48.554;14.454;2023-12-20T03:35:25;37.84;33.90;40.33;;
37163;Laerm;23057;48.554;14.454;2023-12-20T03:37:56;37.83;34.31;40.03;;
37163;Laerm;23057;48.554;14.454;2023-12-20T03:40:27;37.84;33.90;40.80;;
37163;Laerm;23057;48.554;14.454;2023-12-20T03:42:58;37.81;33.44;40.71;;
37163;Laerm;23057;48.554;14.454;2023-12-20T03:45:29;37.78;33.44;40.43;;
37163;Laerm;23057;48.554;14.454;2023-12-20T03:48:00;37.79;33.90;40.43;;
37163;Laerm;23057;48.554;14.454;2023-12-20T03:50:31;37.79;34.31;40.23;;
37163;Laerm;23057;48.554;14.454;2023-12-20T03:53:02;37.81;33.44;40.13;;
37163;Laerm;23057;48.554;14.454;2023-12-20T03:55:33;37.80;34.69;40.33;;
37163;Laerm;23057;48.554;14.454;2023-12-20T03:58:03;37.80;34.31;40.33;;
37163;Laerm;23057;48.554;14.454;2023-12-20T04:00:34;37.80;33.90;40.13;;
37163;Laerm;23057;48.554;14.454;2023-12-20T04:03:06;37.77;34.31;40.80;;
37163;Laerm;23057;48.554;14.454;2023-12-20T04:05:37;37.78;33.44;40.13;;
37163;Laerm;23057;48.554;14.454;2023-12-20T04:08:09;37.76;33.90;40.03;;
37163;Laerm;23057;48.554;14.454;2023-12-20T04:10:40;37.98;34.34;40.80;;
37163;Laerm;23057;48.554;14.454;2023-12-20T04:13:11;37.81;33.44;40.13;;
37163;Laerm;23057;48.554;14.454;2023-12-20T04:15:42;37.78;33.90;40.62;;
37163;Laerm;23057;48.554;14.454;2023-12-20T04:18:13;37.78;33.44;40.33;;
37163;Laerm;23057;48.554;14.454;2023-12-20T04:20:44;37.79;33.90;40.33;;
37163;Laerm;23057;48.554;14.454;2023-12-20T04:23:16;37.80;33.44;40.33;;
37163;Laerm;23057;48.554;14.454;2023-12-20T04:25:47;37.79;34.31;40.43;;
37163;Laerm;23057;48.554;14.454;2023-12-20T04:28:18;37.79;34.31;40.33;;
37163;Laerm;23057;48.554;14.454;2023-12-20T04:30:49;37.77;32.93;40.62;;
37163;Laerm;23057;48.554;14.454;2023-12-20T04:33:20;37.78;34.31;40.23;;
37163;Laerm;23057;48.554;14.454;2023-12-20T04:35:50;37.78;33.90;40.33;;
37163;Laerm;23057;48.554;14.454;2023-12-20T04:38:22;37.78;33.44;40.23;;
37163;Laerm;23057;48.554;14.454;2023-12-20T04:40:52;37.77;33.90;40.33;;
37163;Laerm;23057;48.554;14.454;2023-12-20T04:43:23;37.79;34.31;40.43;;
37163;Laerm;23057;48.554;14.454;2023-12-20T04:45:54;37.78;34.69;40.13;;
37163;Laerm;23057;48.554;14.454;2023-12-20T04:48:25;37.78;33.90;40.03;;
37163;Laerm;23057;48.554;14.454;2023-12-20T04:50:56;37.77;33.90;40.13;;
37163;Laerm;23057;48.554;14.454;2023-12-20T04:53:27;37.78;34.31;40.71;;
37163;Laerm;23057;48.554;14.454;2023-12-20T04:55:58;37.78;34.34;40.23;;
37163;Laerm;23057;48.554;14.454;2023-12-20T04:58:28;37.79;34.31;40.43;;
37163;Laerm;23057;48.554;14.454;2023-12-20T05:01:01;37.81;33.90;40.62;;
37163;Laerm;23057;48.554;14.454;2023-12-20T05:03:32;37.77;33.90;40.53;;
37163;Laerm;23057;48.554;14.454;2023-12-20T05:06:04;37.76;34.31;40.53;;
37163;Laerm;23057;48.554;14.454;2023-12-20T05:08:34;37.77;33.90;40.43;;
37163;Laerm;23057;48.554;14.454;2023-12-20T05:11:05;37.76;32.93;40.13;;
37163;Laerm;23057;48.554;14.454;2023-12-20T05:13:36;37.75;33.90;40.89;;
37163;Laerm;23057;48.554;14.454;2023-12-20T05:16:07;37.75;33.44;40.33;;
37163;Laerm;23057;48.554;14.454;2023-12-20T05:18:38;37.75;33.90;40.33;;
37163;Laerm;23057;48.554;14.454;2023-12-20T05:21:09;37.75;33.90;40.13;;
37163;Laerm;23057;48.554;14.454;2023-12-20T05:23:40;37.74;34.69;40.13;;
37163;Laerm;23057;48.554;14.454;2023-12-20T05:26:10;37.74;33.44;40.43;;
37163;Laerm;23057;48.554;14.454;2023-12-20T05:28:41;37.74;32.93;40.23;;
37163;Laerm;23057;48.554;14.454;2023-12-20T05:31:12;37.74;34.31;40.62;;
37163;Laerm;23057;48.554;14.454;2023-12-20T05:33:43;37.74;34.31;40.03;;
37163;Laerm;23057;48.554;14.454;2023-12-20T05:36:14;37.74;32.93;40.33;;
37163;Laerm;23057;48.554;14.454;2023-12-20T05:38:45;37.75;34.31;40.03;;
37163;Laerm;23057;48.554;14.454;2023-12-20T05:41:16;37.72;33.55;40.43;;
37163;Laerm;23057;48.554;14.454;2023-12-20T05:43:47;37.74;33.97;40.23;;
37163;Laerm;23057;48.554;14.454;2023-12-20T05:46:18;37.75;33.90;40.33;;
37163;Laerm;23057;48.554;14.454;2023-12-20T05:48:49;37.74;34.31;40.62;;
37163;Laerm;23057;48.554;14.454;2023-12-20T05:51:20;37.74;34.31;40.43;;
37163;Laerm;23057;48.554;14.454;2023-12-20T05:53:51;37.73;33.44;40.33;;
37163;Laerm;23057;48.554;14.454;2023-12-20T05:56:22;37.75;33.44;40.62;;
37163;Laerm;23057;48.554;14.454;2023-12-20T05:58:52;37.75;34.31;40.43;;
37163;Laerm;23057;48.554;14.454;2023-12-20T06:01:23;37.76;34.31;40.23;;
37163;Laerm;23057;48.554;14.454;2023-12-20T06:03:54;37.74;33.09;40.53;;
37163;Laerm;23057;48.554;14.454;2023-12-20T06:06:25;37.76;33.90;40.33;;
37163;Laerm;23057;48.554;14.454;2023-12-20T06:08:56;37.74;34.31;40.13;;
37163;Laerm;23057;48.554;14.454;2023-12-20T06:11:27;37.74;33.44;40.62;;
37163;Laerm;23057;48.554;14.454;2023-12-20T06:13:58;37.76;34.69;40.43;;
37163;Laerm;23057;48.554;14.454;2023-12-20T06:16:29;37.74;34.31;40.33;;
37163;Laerm;23057;48.554;14.454;2023-12-20T06:18:59;37.74;33.44;40.33;;
37163;Laerm;23057;48.554;14.454;2023-12-20T06:21:30;37.72;33.90;40.62;;
37163;Laerm;23057;48.554;14.454;2023-12-20T06:24:01;37.74;34.31;40.33;;
37163;Laerm;23057;48.554;14.454;2023-12-20T06:26:32;37.75;33.90;40.43;;
37163;Laerm;23057;48.554;14.454;2023-12-20T06:29:03;37.76;34.69;40.62;;
37163;Laerm;23057;48.554;14.454;2023-12-20T06:31:33;37.71;33.90;40.13;;
37163;Laerm;23057;48.554;14.454;2023-12-20T06:34:04;37.73;33.90;40.23;;
37163;Laerm;23057;48.554;14.454;2023-12-20T06:36:35;37.74;33.90;40.23;;
37163;Laerm;23057;48.554;14.454;2023-12-20T06:39:06;37.71;33.90;40.43;;
37163;Laerm;23057;48.554;14.454;2023-12-20T06:41:37;37.71;33.90;40.43;;
37163;Laerm;23057;48.554;14.454;2023-12-20T06:44:07;37.69;33.90;40.23;;
37163;Laerm;23057;48.554;14.454;2023-12-20T06:46:38;37.68;33.97;40.33;;
37163;Laerm;23057;48.554;14.454;2023-12-20T06:49:09;37.69;33.44;40.03;;
37163;Laerm;23057;48.554;14.454;2023-12-20T06:51:40;37.68;33.90;40.23;;
37163;Laerm;23057;48.554;14.454;2023-12-20T06:54:11;37.64;33.90;40.13;;
37163;Laerm;23057;48.554;14.454;2023-12-20T06:56:41;37.66;34.31;40.33;;
37163;Laerm;23057;48.554;14.454;2023-12-20T06:59:12;37.78;32.93;58.68;;
37163;Laerm;23057;48.554;14.454;2023-12-20T07:01:48;37.68;33.90;40.43;;
37163;Laerm;23057;48.554;14.454;2023-12-20T07:04:20;37.68;33.90;40.18;;
37163;Laerm;23057;48.554;14.454;2023-12-20T07:06:52;37.67;33.90;40.23;;
37163;Laerm;23057;48.554;14.454;2023-12-20T07:09:27;37.68;33.44;40.43;;
37163;Laerm;23057;48.554;14.454;2023-12-20T07:11:58;37.68;33.44;39.92;;
37163;Laerm;23057;48.554;14.454;2023-12-20T07:14:29;37.70;32.93;40.13;;
37163;Laerm;23057;48.554;14.454;2023-12-20T07:16:59;37.67;33.90;40.43;;
37163;Laerm;23057;48.554;14.454;2023-12-20T07:19:30;37.64;33.44;40.03;;
37163;Laerm;23057;48.554;14.454;2023-12-20T07:22:01;37.67;33.97;40.13;;
37163;Laerm;23057;48.554;14.454;2023-12-20T07:24:33;37.66;34.31;40.71;;
37163;Laerm;23057;48.554;14.454;2023-12-20T07:27:04;37.65;33.90;39.99;;
37163;Laerm;23057;48.554;14.454;2023-12-20T07:29:35;37.65;33.44;40.62;;
37163;Laerm;23057;48.554;14.454;2023-12-20T07:32:06;37.63;34.69;40.13;;
37163;Laerm;23057;48.554;14.454;2023-12-20T07:34:37;37.66;33.90;40.23;;
37163;Laerm;23057;48.554;14.454;2023-12-20T07:37:07;37.62;33.44;40.53;;
37163;Laerm;23057;48.554;14.454;2023-12-20T07:39:41;37.64;32.93;40.13;;
37163;Laerm;23057;48.554;14.454;2023-12-20T07:42:12;37.65;33.90;40.23;;
37163;Laerm;23057;48.554;14.454;2023-12-20T07:44:43;37.64;33.90;40.33;;
37163;Laerm;23057;48.554;14.454;2023-12-20T07:47:13;37.65;33.90;40.33;;
37163;Laerm;23057;48.554;14.454;2023-12-20T07:49:51;37.62;33.44;40.23;;
37163;Laerm;23057;48.554;14.454;2023-12-20T07:52:24;37.62;34.31;40.33;;
37163;Laerm;23057;48.554;14.454;2023-12-20T07:54:56;37.63;33.44;40.53;;
37163;Laerm;23057;48.554;14.454;2023-12-20T07:57:29;37.65;33.90;40.03;;
37163;Laerm;23057;48.554;14.454;2023-12-20T08:00:01;37.63;33.44;40.03;;
37163;Laerm;23057;48.554;14.454;2023-12-20T08:02:34;37.65;33.90;40.43;;
37163;Laerm;23057;48.554;14.454;2023-12-20T08:05:05;37.63;33.90;40.33;;
37163;Laerm;23057;48.554;14.454;2023-12-20T08:07:36;37.66;32.93;40.13;;
37163;Laerm;23057;48.554;14.454;2023-12-20T08:10:08;37.62;33.90;40.13;;
37163;Laerm;23057;48.554;14.454;2023-12-20T08:12:39;37.60;33.90;40.03;;
37163;Laerm;23057;48.554;14.454;2023-12-20T08:15:10;37.65;33.90;40.71;;
37163;Laerm;23057;48.554;14.454;2023-12-20T08:17:41;37.63;33.90;40.13;;
37163;Laerm;23057;48.554;14.454;2023-12-20T08:20:12;37.64;33.44;40.03;;
37163;Laerm;23057;48.554;14.454;2023-12-20T08:22:43;37.62;33.90;40.03;;
37163;Laerm;23057;48.554;14.454;2023-12-20T08:25:14;37.66;33.44;40.13;;
37163;Laerm;23057;48.554;14.454;2023-12-20T08:27:46;37.63;33.90;40.13;;
37163;Laerm;23057;48.554;14.454;2023-12-20T08:30:17;37.63;33.90;40.13;;
37163;Laerm;23057;48.554;14.454;2023-12-20T08:32:51;37.65;32.93;40.13;;
37163;Laerm;23057;48.554;14.454;2023-12-20T08:35:22;37.63;33.44;40.18;;
37163;Laerm;23057;48.554;14.454;2023-12-20T08:37:52;37.64;33.90;41.22;;
37163;Laerm;23057;48.554;14.454;2023-12-20T08:40:23;37.62;33.90;40.13;;
37163;Laerm;23057;48.554;14.454;2023-12-20T08:42:54;37.64;34.31;40.08;;
37163;Laerm;23057;48.554;14.454;2023-12-20T08:45:25;37.64;33.44;40.23;;
37163;Laerm;23057;48.554;14.454;2023-12-20T08:47:56;37.64;33.44;40.33;;
37163;Laerm;23057;48.554;14.454;2023-12-20T08:50:27;37.62;33.44;40.33;;
37163;Laerm;23057;48.554;14.454;2023-12-20T08:52:58;37.64;33.90;40.23;;
37163;Laerm;23057;48.554;14.454;2023-12-20T08:55:29;37.65;33.44;40.53;;
37163;Laerm;23057;48.554;14.454;2023-12-20T08:58:01;37.64;33.90;40.33;;
37163;Laerm;23057;48.554;14.454;2023-12-20T09:00:32;37.63;33.90;40.33;;
37163;Laerm;23057;48.554;14.454;2023-12-20T09:03:03;37.64;33.90;40.23;;
37163;Laerm;23057;48.554;14.454;2023-12-20T09:05:34;37.63;33.44;40.62;;
37163;Laerm;23057;48.554;14.454;2023-12-20T09:08:05;37.65;33.44;40.33;;
37163;Laerm;23057;48.554;14.454;2023-12-20T09:10:38;37.64;33.44;40.23;;
37163;Laerm;23057;48.554;14.454;2023-12-20T09:13:09;37.64;32.93;40.33;;
37163;Laerm;23057;48.554;14.454;2023-12-20T09:15:39;37.65;33.90;40.13;;
37163;Laerm;23057;48.554;14.454;2023-12-20T09:18:11;37.63;34.31;40.13;;
37163;Laerm;23057;48.554;14.454;2023-12-20T09:20:41;37.64;33.44;40.13;;
37163;Laerm;23057;48.554;14.454;2023-12-20T09:23:12;37.64;33.44;40.33;;
37163;Laerm;23057;48.554;14.454;2023-12-20T09:25:43;37.61;33.90;39.92;;
37163;Laerm;23057;48.554;14.454;2023-12-20T09:28:14;37.62;34.31;40.03;;
37163;Laerm;23057;48.554;14.454;2023-12-20T09:30:45;37.62;33.90;40.43;;
37163;Laerm;23057;48.554;14.454;2023-12-20T09:33:16;37.63;33.90;40.03;;
37163;Laerm;23057;48.554;14.454;2023-12-20T09:35:47;37.63;33.44;40.13;;
37163;Laerm;23057;48.554;14.454;2023-12-20T09:38:18;37.61;33.90;40.23;;
37163;Laerm;23057;48.554;14.454;2023-12-20T09:40:49;37.61;33.55;40.18;;
37163;Laerm;23057;48.554;14.454;2023-12-20T09:43:24;37.63;33.90;40.43;;
37163;Laerm;23057;48.554;14.454;2023-12-20T09:46:00;37.63;33.90;40.13;;
37163;Laerm;23057;48.554;14.454;2023-12-20T09:48:34;37.64;33.90;40.43;;
37163;Laerm;23057;48.554;14.454;2023-12-20T09:51:06;37.64;33.44;40.23;;
37163;Laerm;23057;48.554;14.454;2023-12-20T09:53:40;37.65;33.44;40.33;;
37163;Laerm;23057;48.554;14.454;2023-12-20T09:56:13;37.65;33.90;40.62;;
37163;Laerm;23057;48.554;14.454;2023-12-20T09:58:45;37.64;33.90;40.33;;
37163;Laerm;23057;48.554;14.454;2023-12-20T10:01:17;37.65;33.90;41.30;;
37163;Laerm;23057;48.554;14.454;2023-12-20T10:03:54;37.63;34.31;40.23;;
37163;Laerm;23057;48.554;14.454;2023-12-20T10:06:25;37.64;34.31;40.08;;
37163;Laerm;23057;48.554;14.454;2023-12-20T10:08:55;37.65;33.44;40.23;;
37163;Laerm;23057;48.554;14.454;2023-12-20T10:11:26;37.65;33.44;40.62;;
37163;Laerm;23057;48.554;14.454;2023-12-20T10:14:01;37.65;33.90;40.33;;
37163;Laerm;23057;48.554;14.454;2023-12-20T10:16:34;37.64;33.44;40.80;;
37163;Laerm;23057;48.554;14.454;2023-12-20T10:19:04;37.66;33.90;40.43;;
37163;Laerm;23057;48.554;14.454;2023-12-20T10:21:35;37.63;33.44;40.23;;
37163;Laerm;23057;48.554;14.454;2023-12-20T10:24:06;37.64;33.90;40.43;;
37163;Laerm;23057;48.554;14.454;2023-12-20T10:26:37;37.63;34.31;40.33;;
37163;Laerm;23057;48.554;14.454;2023-12-20T10:29:09;37.65;33.44;40.53;;
37163;Laerm;23057;48.554;14.454;2023-12-20T10:31:40;37.67;33.90;53.97;;
37163;Laerm;23057;48.554;14.454;2023-12-20T10:34:13;37.67;33.90;40.71;;
37163;Laerm;23057;48.554;14.454;2023-12-20T10:36:45;37.67;34.31;40.03;;
37163;Laerm;23057;48.554;14.454;2023-12-20T10:39:17;37.67;33.44;40.13;;
37163;Laerm;23057;48.554;14.454;2023-12-20T10:41:51;37.66;31.68;40.08;;
37163;Laerm;23057;48.554;14.454;2023-12-20T10:44:22;37.66;33.90;40.33;;
37163;Laerm;23057;48.554;14.454;2023-12-20T10:46:53;37.66;33.44;41.14;;
37163;Laerm;23057;48.554;14.454;2023-12-20T10:49:30;37.64;33.90;40.13;;
37163;Laerm;23057;48.554;14.454;2023-12-20T10:52:05;37.67;32.93;40.13;;
37163;Laerm;23057;48.554;14.454;2023-12-20T10:54:36;37.65;31.68;40.13;;
37163;Laerm;23057;48.554;14.454;2023-12-20T10:57:08;37.67;33.55;40.33;;
37163;Laerm;23057;48.554;14.454;2023-12-20T10:59:40;37.67;33.90;40.80;;
37163;Laerm;23057;48.554;14.454;2023-12-20T11:02:12;37.68;33.90;40.33;;
37163;Laerm;23057;48.554;14.454;2023-12-20T11:11:40;37.71;32.93;40.53;;
37163;Laerm;23057;48.554;14.454;2023-12-20T11:14:38;37.69;33.90;42.22;;
37163;Laerm;23057;48.554;14.454;2023-12-20T11:17:12;37.71;32.93;40.23;;
37163;Laerm;23057;48.554;14.454;2023-12-20T11:22:31;37.69;33.44;40.23;;
37163;Laerm;23057;48.554;14.454;2023-12-20T11:25:11;37.71;33.44;42.03;;
37163;Laerm;23057;48.554;14.454;2023-12-20T11:27:43;37.72;33.90;40.43;;
37163;Laerm;23057;48.554;14.454;2023-12-20T11:30:14;37.70;33.90;40.33;;
37163;Laerm;23057;48.554;14.454;2023-12-20T11:32:46;37.70;33.90;40.71;;
37163;Laerm;23057;48.554;14.454;2023-12-20T11:35:19;37.69;33.55;41.89;;
37163;Laerm;23057;48.554;14.454;2023-12-20T11:37:51;37.68;33.44;40.80;;
37163;Laerm;23057;48.554;14.454;2023-12-20T11:40:23;37.67;34.31;40.23;;
37163;Laerm;23057;48.554;14.454;2023-12-20T11:42:55;37.69;33.90;40.33;;
37163;Laerm;23057;48.554;14.454;2023-12-20T11:45:27;37.69;33.90;41.68;;
37163;Laerm;23057;48.554;14.454;2023-12-20T11:47:58;37.67;33.90;40.80;;
37163;Laerm;23057;48.554;14.454;2023-12-20T11:50:30;37.67;33.90;40.80;;
37163;Laerm;23057;48.554;14.454;2023-12-20T11:53:01;37.66;33.44;40.03;;
37163;Laerm;23057;48.554;14.454;2023-12-20T11:55:34;37.68;32.93;41.96;;
37163;Laerm;23057;48.554;14.454;2023-12-20T11:58:05;37.66;33.44;40.13;;
37163;Laerm;23057;48.554;14.454;2023-12-20T12:00:35;37.71;33.90;40.23;;
37163;Laerm;23057;48.554;14.454;2023-12-20T12:03:06;37.70;33.90;40.53;;
37163;Laerm;23057;48.554;14.454;2023-12-20T12:05:37;37.73;34.31;41.75;;
37163;Laerm;23057;48.554;14.454;2023-12-20T12:08:10;37.72;33.90;40.23;;
37163;Laerm;23057;48.554;14.454;2023-12-20T12:10:41;37.77;34.31;40.33;;
37163;Laerm;23057;48.554;14.454;2023-12-20T12:13:12;37.75;34.31;40.13;;
37163;Laerm;23057;48.554;14.454;2023-12-20T12:15:45;37.75;34.31;40.53;;
37163;Laerm;23057;48.554;14.454;2023-12-20T12:18:17;37.74;32.93;42.79;;
37163;Laerm;23057;48.554;14.454;2023-12-20T12:20:48;37.75;34.31;43.39;;
37163;Laerm;23057;48.554;14.454;2023-12-20T12:23:24;37.77;32.93;43.39;;
37163;Laerm;23057;48.554;14.454;2023-12-20T12:25:56;37.76;33.90;42.98;;
37163;Laerm;23057;48.554;14.454;2023-12-20T12:28:27;37.78;34.31;42.82;;
37163;Laerm;23057;48.554;14.454;2023-12-20T12:31:02;37.81;34.31;42.59;;
37163;Laerm;23057;48.554;14.454;2023-12-20T12:33:34;37.78;33.90;40.23;;
37163;Laerm;23057;48.554;14.454;2023-12-20T12:36:07;37.77;34.69;43.04;;
37163;Laerm;23057;48.554;14.454;2023-12-20T12:38:38;37.77;33.44;40.23;;
37163;Laerm;23057;48.554;14.454;2023-12-20T12:41:09;37.78;33.90;43.04;;
37163;Laerm;23057;48.554;14.454;2023-12-20T12:43:41;37.76;33.90;40.98;;
37163;Laerm;23057;48.554;14.454;2023-12-20T12:46:12;37.73;32.93;40.33;;
37163;Laerm;23057;48.554;14.454;2023-12-20T12:48:43;37.72;34.31;42.47;;
37163;Laerm;23057;48.554;14.454;2023-12-20T12:51:14;37.70;33.44;40.23;;
37163;Laerm;23057;48.554;14.454;2023-12-20T12:53:45;37.72;34.31;40.33;;
37163;Laerm;23057;48.554;14.454;2023-12-20T12:56:16;37.69;33.90;40.23;;
37163;Laerm;23057;48.554;14.454;2023-12-20T12:58:47;37.72;34.31;42.82;;
37163;Laerm;23057;48.554;14.454;2023-12-20T13:01:18;37.71;33.90;40.13;;
37163;Laerm;23057;48.554;14.454;2023-12-20T13:03:48;37.71;33.90;40.13;;
37163;Laerm;23057;48.554;14.454;2023-12-20T13:06:20;37.69;32.35;40.03;;
37163;Laerm;23057;48.554;14.454;2023-12-20T13:08:51;37.70;33.90;40.13;;
37163;Laerm;23057;48.554;14.454;2023-12-20T13:11:21;37.68;33.90;42.47;;
37163;Laerm;23057;48.554;14.454;2023-12-20T13:13:52;37.68;34.31;40.03;;
37163;Laerm;23057;48.554;14.454;2023-12-20T13:16:24;37.69;32.93;40.13;;
37163;Laerm;23057;48.554;14.454;2023-12-20T13:18:55;37.69;33.90;40.33;;
37163;Laerm;23057;48.554;14.454;2023-12-20T13:21:26;37.66;33.90;40.33;;
37163;Laerm;23057;48.554;14.454;2023-12-20T13:23:57;37.66;33.44;40.23;;
37163;Laerm;23057;48.554;14.454;2023-12-20T13:26:28;37.67;33.90;41.61;;
37163;Laerm;23057;48.554;14.454;2023-12-20T13:28:59;37.68;33.44;40.54;;
37163;Laerm;23057;48.554;14.454;2023-12-20T13:31:29;37.64;33.90;39.92;;
37163;Laerm;23057;48.554;14.454;2023-12-20T13:34:00;37.69;33.90;40.03;;
37163;Laerm;23057;48.554;14.454;2023-12-20T13:36:32;37.68;33.44;40.43;;
37163;Laerm;23057;48.554;14.454;2023-12-20T13:39:03;37.67;33.44;40.13;;
37163;Laerm;23057;48.554;14.454;2023-12-20T13:41:35;37.64;33.44;40.13;;
37163;Laerm;23057;48.554;14.454;2023-12-20T13:44:06;37.68;34.31;40.13;;
37163;Laerm;23057;48.554;14.454;2023-12-20T13:46:37;37.65;34.31;40.23;;
37163;Laerm;23057;48.554;14.454;2023-12-20T13:49:08;37.65;33.44;40.03;;
37163;Laerm;23057;48.554;14.454;2023-12-20T13:51:38;37.67;34.31;41.46;;
37163;Laerm;23057;48.554;14.454;2023-12-20T13:54:09;37.68;33.44;40.23;;
37163;Laerm;23057;48.554;14.454;2023-12-20T13:56:41;37.66;32.93;40.27;;
37163;Laerm;23057;48.554;14.454;2023-12-20T13:59:12;37.64;33.44;40.03;;
37163;Laerm;23057;48.554;14.454;2023-12-20T14:01:44;37.68;34.31;40.23;;
37163;Laerm;23057;48.554;14.454;2023-12-20T14:04:15;37.67;33.90;40.23;;